首页
METAR-TAF:

METAR-TAF

机场 :

何塞·马蒂国际机场

哈瓦那, 古巴

纬度: 22-59N, 经度: 082-24W, 海拔: 59米

当前天气观测

该预报发布于1小时和18分钟前的15:55 UTC
风速13节,风向东北
温度 25°C
湿度 61%
气压 1020 hPa
能見度: 9000
散云层高于3500英尺

METAR: MUHA 201555Z 04013KT 9000 SCT035 25/17 Q1020

时间: 12:13 (17:13 UTC)

预报

该预报发布于6小时和13分钟前的11:00 UTC
预报有效从20日的 12点(UTC)到 21日的 12点(UTC)
风速9节,风向北转东北
能見度: 9000
散云层高于4000英尺

TAF: MUHA 201100Z 2012/2112 03009KT 9000 SCT040

超过4000个机场的气象观测和天气预报(METAR&TAF报告)。

可查询的气象台以黄色和红色小点在地图上表示。

将鼠标移到小点上方,可查看气象台名称。

然后点击查看天气观测和预报。

如需切换地图:点击带黑十字的绿色按钮放大地图;点击带横线的绿色按钮缩小地图;或者点击绿色箭头查看邻近地区的地图。


METAR-TAF: